Time;durP1;ratioP1;P1;durP2;ratioP2;P2;SDS_P1;SDS_P2;PMS_P1;PMS_P2;Temp;Humidity;BMP_temperature;BMP_pressure;BME280_temperature;BME280_humidity;BME280_pressure;Samples;Min_cycle;Max_cycle;Signal;HPM_P1;HPM_P2
2021/10/25 00:00:52;;;;;;;12.98;4.88;;;;;;;22.59;17.26;99417.69;5080129;28;20059;-82
2021/10/25 00:03:18;;;;;;;10.18;4.53;;;;;;;22.28;17.23;99415.50;5087328;28;20046;-82
2021/10/25 00:05:44;;;;;;;11.05;4.78;;;;;;;22.12;17.72;99410.22;5093451;28;20024;-82
2021/10/25 00:08:13;;;;;;;9.98;5.00;;;;;;;22.28;17.86;99410.72;5078120;28;20040;-82
2021/10/25 00:10:40;;;;;;;12.65;4.93;;;;;;;22.40;17.61;99407.59;5058964;28;20055;-82
2021/10/25 00:13:06;;;;;;;13.10;5.20;;;;;;;22.56;17.19;99413.69;5062185;28;20032;-82
2021/10/25 00:15:32;;;;;;;13.35;5.25;;;;;;;22.51;17.47;99411.25;5061891;28;20025;-82
2021/10/25 00:17:58;;;;;;;11.15;6.07;;;;;;;22.60;17.06;99405.28;5059285;28;20056;-82
2021/10/25 00:20:24;;;;;;;12.45;5.97;;;;;;;22.63;17.10;99412.94;5061687;28;20076;-82
2021/10/25 00:22:50;;;;;;;12.68;5.57;;;;;;;22.61;16.88;99404.16;5058715;28;20037;-82
2021/10/25 00:25:16;;;;;;;13.23;5.95;;;;;;;22.30;16.99;99407.53;5062049;28;20072;-82
2021/10/25 00:27:44;;;;;;;12.38;5.88;;;;;;;22.33;16.95;99401.16;5066332;28;20036;-82
2021/10/25 00:30:11;;;;;;;11.60;5.10;;;;;;;22.46;16.86;99396.81;5060894;28;20032;-82
2021/10/25 00:32:37;;;;;;;13.23;5.43;;;;;;;22.56;16.73;99396.09;5060513;28;20094;-82
2021/10/25 00:35:04;;;;;;;12.13;5.45;;;;;;;22.60;16.75;99394.09;5066585;28;20032;-82
2021/10/25 00:37:30;;;;;;;10.27;4.93;;;;;;;22.65;16.48;99397.38;5059161;28;20048;-82
2021/10/25 00:39:56;;;;;;;14.32;5.45;;;;;;;22.37;16.50;99391.59;5058290;28;20017;-82
2021/10/25 00:42:22;;;;;;;13.35;5.93;;;;;;;22.39;16.52;99389.19;5060752;28;20048;-82
2021/10/25 00:44:48;;;;;;;13.35;6.13;;;;;;;22.17;17.07;99393.03;5071683;28;20032;-82
2021/10/25 00:47:14;;;;;;;11.82;5.95;;;;;;;21.81;17.38;99385.56;5069136;28;20041;-82
2021/10/25 00:49:40;;;;;;;14.80;5.57;;;;;;;21.93;17.34;99382.50;5055776;28;20402;-81
2021/10/25 00:52:07;;;;;;;11.80;5.47;;;;;;;21.97;17.56;99381.34;5056891;28;20032;-82
2021/10/25 00:54:37;;;;;;;11.38;5.13;;;;;;;21.67;17.49;99379.84;5062536;28;20034;-82
2021/10/25 00:57:04;;;;;;;12.13;5.03;;;;;;;21.62;17.77;99380.22;5063447;28;20025;-82
2021/10/25 00:59:33;;;;;;;10.15;4.88;;;;;;;21.44;17.66;99382.03;5060913;28;20060;-82
2021/10/25 01:02:00;;;;;;;7.15;4.43;;;;;;;21.32;17.97;99380.34;5060706;28;20032;-82
2021/10/25 01:04:27;;;;;;;10.88;4.88;;;;;;;21.21;18.19;99374.63;5059837;28;20480;-82
2021/10/25 01:06:54;;;;;;;11.27;4.88;;;;;;;21.37;17.98;99376.38;5063805;28;20075;-81
2021/10/25 01:09:20;;;;;;;12.15;5.18;;;;;;;21.76;17.72;99375.53;5061751;28;20033;-81
2021/10/25 01:11:48;;;;;;;11.00;4.40;;;;;;;22.09;17.17;99373.81;5061547;28;20514;-81
2021/10/25 01:14:15;;;;;;;12.60;5.18;;;;;;;22.19;16.86;99359.91;5065211;28;20064;-81
2021/10/25 01:16:41;;;;;;;9.95;4.60;;;;;;;22.16;17.10;99366.28;5062466;28;20033;-81
2021/10/25 01:19:07;;;;;;;10.10;4.57;;;;;;;22.14;16.77;99371.47;5066112;28;20037;-82
2021/10/25 01:21:33;;;;;;;10.30;4.53;;;;;;;22.28;16.71;99360.34;5063984;28;20406;-81
2021/10/25 01:23:59;;;;;;;14.13;5.55;;;;;;;22.20;17.02;99350.31;5066480;28;20110;-81
2021/10/25 01:26:26;;;;;;;11.98;4.75;;;;;;;22.09;16.91;99352.25;5058078;28;20040;-81
2021/10/25 01:28:53;;;;;;;11.18;5.00;;;;;;;22.20;16.60;99343.91;5063662;28;20123;-81
2021/10/25 01:31:20;;;;;;;10.48;4.72;;;;;;;22.17;16.60;99347.50;5063846;28;20540;-81
2021/10/25 01:33:48;;;;;;;11.88;5.10;;;;;;;22.14;16.83;99351.88;5066128;28;20090;-81
2021/10/25 01:36:15;;;;;;;10.88;4.80;;;;;;;22.25;16.89;99346.34;5068982;28;20089;-81
2021/10/25 01:38:41;;;;;;;13.55;5.43;;;;;;;22.22;16.83;99347.13;5065115;28;20028;-81
2021/10/25 01:41:08;;;;;;;14.95;6.72;;;;;;;22.17;16.84;99351.06;5075015;28;20070;-81
2021/10/25 01:43:36;;;;;;;10.57;5.88;;;;;;;22.16;17.18;99346.69;5071649;28;20033;-81
2021/10/25 01:46:05;;;;;;;14.15;4.93;;;;;;;22.23;16.79;99346.75;5061244;28;20059;-81
2021/10/25 01:48:32;;;;;;;14.02;5.60;;;;;;;22.34;16.72;99344.78;5065475;28;20043;-81
2021/10/25 01:50:58;;;;;;;10.50;5.03;;;;;;;22.18;16.76;99347.09;5036199;28;20032;-81
2021/10/25 01:53:24;;;;;;;13.18;5.57;;;;;;;22.15;16.40;99345.06;5059721;28;20465;-81
2021/10/25 01:55:57;;;;;;;12.88;5.85;;;;;;;21.78;16.56;99338.81;5054524;28;20033;-81
2021/10/25 01:58:24;;;;;;;14.07;5.82;;;;;;;21.32;17.37;99335.63;5052555;28;20071;-81
2021/10/25 02:00:50;;;;;;;17.58;6.85;;;;;;;21.27;17.76;99331.22;5063270;28;20020;-81
2021/10/25 02:03:16;;;;;;;15.45;6.88;;;;;;;21.16;17.74;99327.53;5089660;28;20049;-82
2021/10/25 02:05:42;;;;;;;13.60;6.00;;;;;;;21.10;17.45;99317.06;5073120;28;20032;-81
2021/10/25 02:08:09;;;;;;;12.60;4.97;;;;;;;21.15;17.64;99320.31;5068910;28;20037;-82
2021/10/25 02:10:35;;;;;;;13.95;4.75;;;;;;;21.09;17.65;99313.50;5057159;28;20191;-82
2021/10/25 02:13:02;;;;;;;13.00;4.50;;;;;;;21.26;17.46;99314.84;5060003;28;20443;-81
2021/10/25 02:15:29;;;;;;;11.07;4.50;;;;;;;21.65;17.35;99306.78;5059607;28;20032;-80
2021/10/25 02:17:55;;;;;;;9.00;4.38;;;;;;;21.88;17.20;99312.94;5065767;28;20036;-81
2021/10/25 02:20:22;;;;;;;13.48;4.88;;;;;;;21.97;16.82;99307.81;5059708;28;20037;-81
2021/10/25 02:22:49;;;;;;;12.18;4.85;;;;;;;21.79;16.69;99306.88;5063790;28;20056;-81
2021/10/25 02:25:15;;;;;;;8.98;4.40;;;;;;;21.59;16.68;99302.72;5063058;28;20500;-81
2021/10/25 02:27:41;;;;;;;8.93;4.35;;;;;;;21.73;16.47;99309.22;5061102;28;20111;-81
2021/10/25 02:30:07;;;;;;;8.90;3.17;;;;;;;21.79;16.55;99304.88;5059657;28;20028;-81
2021/10/25 02:32:33;;;;;;;10.60;4.32;;;;;;;21.93;16.61;99304.19;5063789;28;20041;-80
2021/10/25 02:35:00;;;;;;;7.90;3.65;;;;;;;22.06;16.20;99297.06;5060752;28;20094;-81
2021/10/25 02:37:26;;;;;;;7.72;3.80;;;;;;;22.08;16.24;99303.06;5057964;28;20090;-80
2021/10/25 02:39:53;;;;;;;6.25;3.67;;;;;;;22.10;16.38;99308.31;5064273;28;21934;-80
2021/10/25 02:42:19;;;;;;;6.80;3.25;;;;;;;22.13;16.84;99302.72;5060046;28;20033;-81
2021/10/25 02:44:45;;;;;;;9.50;3.80;;;;;;;22.11;16.57;99304.28;5062866;28;20506;-81
2021/10/25 02:47:11;;;;;;;7.28;3.47;;;;;;;21.99;16.80;99292.25;5063032;28;20512;-80
2021/10/25 02:49:38;;;;;;;10.80;3.38;;;;;;;21.74;17.05;99307.22;5081278;28;20093;-81
2021/10/25 02:52:05;;;;;;;8.13;3.92;;;;;;;21.63;17.05;99297.97;5071149;28;20032;-81
2021/10/25 02:54:31;;;;;;;11.20;4.57;;;;;;;21.69;17.02;99293.63;5085980;28;20040;-81
2021/10/25 02:56:58;;;;;;;9.25;3.75;;;;;;;21.80;17.16;99291.69;5072344;28;20432;-81
2021/10/25 02:59:24;;;;;;;7.65;4.10;;;;;;;21.91;16.79;99298.19;5076935;28;20032;-81
2021/10/25 03:01:51;;;;;;;13.15;4.70;;;;;;;21.85;16.61;99299.75;5065060;28;20068;-81
2021/10/25 03:04:17;;;;;;;7.55;3.47;;;;;;;21.82;16.71;99303.31;5055619;28;20036;-81
2021/10/25 03:06:43;;;;;;;9.77;4.28;;;;;;;21.81;16.58;99302.50;5074542;28;20033;-81
2021/10/25 03:09:09;;;;;;;12.73;5.22;;;;;;;21.78;16.72;99306.06;5051417;28;20028;-81
2021/10/25 03:11:35;;;;;;;11.73;5.18;;;;;;;21.40;17.37;99300.97;5069874;28;20067;-81
2021/10/25 03:14:02;;;;;;;7.97;4.40;;;;;;;21.33;17.32;99298.94;5070537;28;20451;-80
2021/10/25 03:16:28;;;;;;;11.02;5.18;;;;;;;21.21;16.93;99301.22;5071840;28;20040;-80
2021/10/25 03:18:54;;;;;;;9.85;4.50;;;;;;;21.27;16.97;99291.28;5065377;28;20036;-81
2021/10/25 03:21:22;;;;;;;10.80;4.13;;;;;;;21.28;16.72;99287.31;5078213;28;20047;-80
2021/10/25 03:23:49;;;;;;;7.45;3.75;;;;;;;21.37;16.68;99287.81;5066146;28;20404;-80
2021/10/25 03:26:16;;;;;;;8.50;3.67;;;;;;;21.50;16.32;99296.66;5066139;28;20055;-80
2021/10/25 03:28:43;;;;;;;11.40;4.80;;;;;;;21.39;16.44;99282.63;5072669;28;20032;-80
2021/10/25 03:31:10;;;;;;;8.90;3.83;;;;;;;20.94;17.06;99280.19;5069288;28;20072;-80
2021/10/25 03:33:36;;;;;;;10.68;5.53;;;;;;;20.75;17.59;99283.97;5068727;28;20064;-80
2021/10/25 03:36:05;;;;;;;13.05;5.50;;;;;;;20.57;17.49;99286.59;5070459;28;20494;-80
2021/10/25 03:38:33;;;;;;;8.98;4.45;;;;;;;20.79;17.23;99282.03;5064604;28;20032;-80
2021/10/25 03:41:00;;;;;;;10.80;3.97;;;;;;;20.96;17.28;99280.59;5062998;28;20040;-80
2021/10/25 03:43:31;;;;;;;12.27;4.47;;;;;;;21.13;16.93;99275.22;5070551;28;20062;-80
2021/10/25 03:48:48;;;;;;;4.50;2.55;;;;;;;21.39;16.95;99270.63;5067596;28;20128;-80
2021/10/25 03:51:16;;;;;;;6.68;3.30;;;;;;;21.42;17.05;99276.28;5068236;28;20099;-80
2021/10/25 03:54:04;;;;;;;7.07;2.75;;;;;;;21.23;17.46;99271.72;5066135;28;20477;-80
2021/10/25 04:29:14;;;;;;;7.70;3.03;;;;;;;21.10;17.60;99216.53;5062065;28;20092;-80
2021/10/25 04:31:40;;;;;;;3.80;2.10;;;;;;;21.45;17.41;99221.59;5045498;28;20504;-81
2021/10/25 04:34:06;;;;;;;5.22;1.98;;;;;;;21.58;17.44;99223.69;5060105;28;20040;-80
2021/10/25 04:36:33;;;;;;;4.32;2.20;;;;;;;21.39;17.53;99214.75;5069991;28;20478;-80
2021/10/25 04:38:59;;;;;;;4.93;2.35;;;;;;;21.05;17.93;99225.28;5070627;28;20028;-82
2021/10/25 04:41:25;;;;;;;4.65;2.13;;;;;;;21.11;18.07;99216.16;5067560;28;20028;-82
2021/10/25 04:43:51;;;;;;;5.45;2.72;;;;;;;20.98;18.23;99214.03;5071385;28;20112;-80
2021/10/25 04:46:17;;;;;;;6.22;2.65;;;;;;;20.84;18.14;99208.31;5071367;28;20060;-81
2021/10/25 04:48:43;;;;;;;6.50;2.13;;;;;;;21.00;18.10;99208.84;5075518;28;20056;-81
2021/10/25 04:51:09;;;;;;;8.30;2.65;;;;;;;21.02;18.09;99203.69;5064060;28;20036;-80
2021/10/25 04:53:35;;;;;;;8.98;3.08;;;;;;;21.17;17.87;99203.44;5070379;28;20028;-82
2021/10/25 04:56:01;;;;;;;7.03;2.78;;;;;;;21.46;17.65;99198.03;5064681;28;20025;-80
2021/10/25 04:58:28;;;;;;;7.25;2.85;;;;;;;21.39;17.84;99206.38;5069207;28;20046;-81
2021/10/25 05:00:54;;;;;;;10.60;3.35;;;;;;;21.39;18.12;99211.97;5068242;28;20055;-81
2021/10/25 05:03:20;;;;;;;5.97;2.33;;;;;;;21.15;18.10;99203.03;5066549;28;20052;-81
2021/10/25 05:05:46;;;;;;;9.68;3.15;;;;;;;20.99;18.21;99210.03;5068958;28;20035;-81
2021/10/25 05:08:12;;;;;;;6.55;2.65;;;;;;;21.08;18.37;99205.75;5060989;28;20033;-81
2021/10/25 05:10:38;;;;;;;5.70;2.20;;;;;;;21.32;17.73;99198.75;5075249;28;20039;-81
2021/10/25 05:13:04;;;;;;;6.68;2.90;;;;;;;21.64;17.36;99196.16;5066050;28;20436;-80
2021/10/25 05:15:32;;;;;;;6.30;2.72;;;;;;;21.84;17.02;99194.72;5074044;28;20517;-81
2021/10/25 05:17:58;;;;;;;8.00;3.53;;;;;;;21.84;16.54;99200.31;5070547;28;20107;-81
2021/10/25 05:20:24;;;;;;;12.75;4.60;;;;;;;21.80;16.51;99200.25;5086971;28;20040;-81
2021/10/25 05:22:50;;;;;;;9.23;3.53;;;;;;;21.82;16.46;99209.03;5066520;28;20031;-82
2021/10/25 05:25:16;;;;;;;8.98;4.25;;;;;;;21.81;16.32;99199.06;5070776;28;20033;-81
2021/10/25 05:27:42;;;;;;;9.60;3.67;;;;;;;21.75;16.32;99205.41;5070765;28;20430;-82
2021/10/25 05:30:09;;;;;;;7.15;3.35;;;;;;;21.56;16.34;99202.91;5078780;28;20041;-79
2021/10/25 05:32:35;;;;;;;7.90;3.35;;;;;;;21.34;16.26;99205.56;5075027;28;20119;-80
2021/10/25 05:35:01;;;;;;;10.18;3.78;;;;;;;21.16;16.58;99198.25;5083574;28;20060;-80
2021/10/25 05:37:27;;;;;;;12.48;4.10;;;;;;;21.28;16.53;99204.31;5094363;28;20110;-80
2021/10/25 05:39:56;;;;;;;10.23;3.92;;;;;;;21.06;16.80;99202.56;5096418;28;20024;-80
2021/10/25 05:42:22;;;;;;;11.13;4.32;;;;;;;20.92;17.30;99204.38;5076362;28;20108;-80
2021/10/25 05:44:48;;;;;;;6.63;3.85;;;;;;;20.04;18.33;99203.44;5061996;28;20099;-80
2021/10/25 05:47:14;;;;;;;11.35;4.93;;;;;;;20.21;18.14;99198.06;5068842;28;20041;-81
2021/10/25 05:49:40;;;;;;;9.57;3.63;;;;;;;20.61;18.21;99195.34;5090570;28;20036;-80
2021/10/25 05:52:06;;;;;;;9.43;3.63;;;;;;;20.89;17.67;99194.78;5095969;28;20451;-80
2021/10/25 05:54:32;;;;;;;10.02;4.15;;;;;;;21.09;17.65;99198.19;5085241;28;20032;-80
2021/10/25 05:56:59;;;;;;;7.00;3.55;;;;;;;21.26;17.36;99189.16;5073236;28;20459;-80
2021/10/25 05:59:26;;;;;;;8.25;4.00;;;;;;;21.28;17.66;99192.34;5075113;28;20095;-80
2021/10/25 06:02:09;;;;;;;8.25;3.67;;;;;;;21.23;17.54;99196.31;5078136;28;20028;-80
2021/10/25 06:04:35;;;;;;;10.43;3.97;;;;;;;21.45;17.55;99196.47;5085128;28;20766;-80
2021/10/25 06:07:02;;;;;;;8.55;3.95;;;;;;;21.60;17.46;99196.16;5088996;28;20033;-80
2021/10/25 06:09:33;;;;;;;6.20;3.25;;;;;;;21.87;17.29;99194.72;5074698;28;20479;-80
2021/10/25 06:12:00;;;;;;;6.70;4.28;;;;;;;21.98;17.20;99200.38;5077742;28;20062;-80
2021/10/25 06:14:31;;;;;;;7.30;3.28;;;;;;;22.22;17.16;99199.66;5081471;28;20060;-80
2021/10/25 06:16:59;;;;;;;6.68;3.10;;;;;;;22.44;16.84;99190.13;5066022;28;20423;-80
2021/10/25 06:19:25;;;;;;;9.07;3.92;;;;;;;22.25;17.28;99193.28;5085967;28;20134;-81
2021/10/25 06:21:52;;;;;;;6.70;3.08;;;;;;;22.08;17.79;99202.38;5092228;28;20401;-80
2021/10/25 06:24:19;;;;;;;5.93;2.92;;;;;;;22.40;17.63;99200.53;5075204;28;20029;-80
2021/10/25 06:26:45;;;;;;;6.35;3.40;;;;;;;22.49;17.67;99197.34;5062276;28;20028;-80
2021/10/25 06:29:11;;;;;;;6.55;2.20;;;;;;;22.66;17.55;99193.81;5067187;28;20085;-80
2021/10/25 06:31:37;;;;;;;5.95;2.92;;;;;;;22.86;17.44;99192.22;5085278;28;20032;-80
2021/10/25 06:34:08;;;;;;;9.02;3.50;;;;;;;23.00;17.71;99188.63;5075624;28;20039;-80
2021/10/25 06:36:35;;;;;;;5.38;3.10;;;;;;;22.85;17.61;99187.03;5074501;28;20103;-80
2021/10/25 06:39:11;;;;;;;5.32;3.00;;;;;;;23.01;17.71;99198.63;5086863;28;20024;-80
2021/10/25 06:41:37;;;;;;;6.60;3.00;;;;;;;23.10;17.97;99199.03;5061934;28;20029;-81
2021/10/25 06:44:03;;;;;;;5.30;2.03;;;;;;;23.08;18.33;99190.22;5074834;28;20043;-80
2021/10/25 06:46:30;;;;;;;5.32;2.45;;;;;;;23.02;18.34;99192.63;5080120;28;20032;-81
2021/10/25 06:48:56;;;;;;;4.95;2.42;;;;;;;23.26;18.24;99203.03;5082195;28;20120;-80
2021/10/25 06:51:22;;;;;;;6.97;2.40;;;;;;;23.53;18.01;99209.00;5092399;28;20028;-81
2021/10/25 06:53:48;;;;;;;6.57;3.13;;;;;;;23.88;17.61;99220.16;5079590;28;20044;-80
2021/10/25 06:56:14;;;;;;;12.93;5.97;;;;;;;24.08;17.54;99208.50;5082899;28;20402;-80
2021/10/25 06:58:40;;;;;;;18.08;9.68;;;;;;;24.22;17.52;99219.66;5077214;28;20093;-80
2021/10/25 07:01:06;;;;;;;19.17;10.13;;;;;;;24.33;17.26;99200.75;5092056;28;20032;-80
2021/10/25 07:03:32;;;;;;;17.45;9.02;;;;;;;24.40;16.93;99211.94;5073119;28;20118;-80
2021/10/25 07:06:01;;;;;;;10.18;6.50;;;;;;;24.53;17.00;99201.84;5074177;28;20070;-80
2021/10/25 07:08:28;;;;;;;12.10;8.00;;;;;;;24.39;17.72;99202.72;5074202;28;20423;-81
2021/10/25 07:10:55;;;;;;;15.63;7.38;;;;;;;23.80;18.41;99193.34;5077140;28;20048;-80
2021/10/25 07:13:22;;;;;;;16.63;6.75;;;;;;;23.68;18.50;99201.38;5065767;28;20094;-80
2021/10/25 07:16:06;;;;;;;14.90;8.35;;;;;;;23.90;18.51;99202.91;5094299;28;20028;-80
2021/10/25 07:18:43;;;;;;;15.95;9.45;;;;;;;23.68;18.89;99202.19;5087809;28;20024;-80
2021/10/25 07:21:36;;;;;;;15.18;8.80;;;;;;;23.76;18.84;99202.94;5094146;28;20028;-80
2021/10/25 07:26:18;;;;;;;11.85;8.10;;;;;;;23.87;18.95;99196.13;5056942;28;20029;-80
2021/10/25 08:03:00;;;;;;;6.55;2.95;;;;;;;25.47;19.07;99162.19;5092093;28;20058;-80
2021/10/25 08:08:05;;;;;;;5.47;3.10;;;;;;;26.09;18.49;99163.47;5081366;28;20039;-79
2021/10/25 08:10:43;;;;;;;4.82;2.78;;;;;;;25.40;18.90;99166.66;5093200;28;20059;-80
2021/10/25 08:13:17;;;;;;;7.60;3.55;;;;;;;25.46;18.87;99164.22;5083266;28;20115;-80
2021/10/25 08:15:47;;;;;;;7.60;3.58;;;;;;;25.72;17.95;99155.06;5093463;28;20032;-80
2021/10/25 08:21:00;;;;;;;6.03;3.45;;;;;;;26.58;17.59;99156.34;5074251;28;20097;-79
2021/10/25 08:23:26;;;;;;;5.63;2.67;;;;;;;26.50;17.89;99151.25;5074535;28;20481;-80
2021/10/25 08:25:53;;;;;;;6.95;3.08;;;;;;;26.75;16.81;99148.88;5092750;28;20055;-80
2021/10/25 08:28:19;;;;;;;4.45;2.53;;;;;;;26.85;16.75;99153.56;5091384;28;20031;-80
2021/10/25 08:30:45;;;;;;;6.40;2.08;;;;;;;27.13;16.91;99152.28;5090174;28;20036;-80
2021/10/25 08:33:28;;;;;;;4.20;2.13;;;;;;;27.26;16.33;99147.63;5090574;28;20069;-79
2021/10/25 08:36:14;;;;;;;4.07;2.20;;;;;;;27.32;16.54;99143.88;5086576;28;20494;-80
2021/10/25 08:41:30;;;;;;;5.45;1.85;;;;;;;26.76;17.73;99146.88;5073196;28;20079;-80
2021/10/25 08:43:59;;;;;;;3.58;1.50;;;;;;;26.78;17.44;99138.78;5059816;28;20116;-80
2021/10/25 08:46:28;;;;;;;5.18;1.70;;;;;;;26.63;16.86;99138.97;5061840;28;20029;-80
2021/10/25 08:48:56;;;;;;;3.05;1.63;;;;;;;26.96;16.85;99144.91;5086516;28;20062;-80
2021/10/25 08:51:23;;;;;;;3.53;1.70;;;;;;;27.00;16.64;99132.34;5082472;28;20032;-80
2021/10/25 08:53:50;;;;;;;3.42;1.42;;;;;;;27.10;17.35;99130.59;5075003;28;20131;-80
2021/10/25 08:56:17;;;;;;;3.47;1.40;;;;;;;27.42;16.64;99127.22;5072631;28;20033;-80
2021/10/25 08:58:46;;;;;;;3.13;1.70;;;;;;;27.20;17.57;99127.59;5054757;28;20386;-80
2021/10/25 09:01:23;;;;;;;3.92;1.83;;;;;;;27.66;16.77;99129.56;5084186;28;20391;-80
2021/10/25 09:04:02;;;;;;;4.38;1.10;;;;;;;27.68;16.20;99127.09;5091421;28;20417;-80
2021/10/25 09:06:28;;;;;;;4.47;1.13;;;;;;;28.08;15.76;99127.13;5088052;28;20032;-80
2021/10/25 09:08:59;;;;;;;1.90;1.00;;;;;;;28.18;15.86;99124.06;5092581;28;20052;-80
2021/10/25 09:11:25;;;;;;;;;;;;;;;28.47;16.34;99115.75;5087941;28;20036;-80
2021/10/25 09:13:51;;;;;;;2.35;1.02;;;;;;;28.53;15.12;99117.59;5073040;28;20376;-80
2021/10/25 09:16:18;;;;;;;2.58;1.23;;;;;;;28.29;15.49;99113.31;5080999;28;20124;-80
2021/10/25 09:18:44;;;;;;;2.70;1.00;;;;;;;28.65;15.53;99111.28;5088226;28;20028;-81
2021/10/25 09:21:10;;;;;;;2.92;1.30;;;;;;;28.41;14.92;99106.19;5093008;28;20040;-80
2021/10/25 09:23:51;;;;;;;2.97;1.30;;;;;;;28.10;15.97;99097.19;5082639;28;20059;-80
2021/10/25 09:26:21;;;;;;;2.08;1.05;;;;;;;28.46;15.85;99097.19;5072079;28;20441;-80
2021/10/25 09:28:53;;;;;;;2.78;1.02;;;;;;;28.51;15.07;99089.00;5089399;28;20441;-80
2021/10/25 09:31:26;;;;;;;3.45;1.27;;;;;;;28.19;15.42;99094.59;5076533;28;20420;-80
2021/10/25 09:34:11;;;;;;;2.15;0.90;;;;;;;28.08;14.11;99094.81;5080220;28;20059;-80
2021/10/25 09:36:44;;;;;;;1.90;1.00;;;;;;;27.32;15.19;99095.94;5063094;28;20067;-80
2021/10/25 09:39:24;;;;;;;1.60;0.90;;;;;;;27.35;16.62;99097.09;5082873;28;20031;-80
2021/10/25 09:49:58;;;;;;;1.95;0.75;;;;;;;29.43;15.87;99084.59;5093304;28;20516;-80
2021/10/25 09:52:35;;;;;;;2.47;1.33;;;;;;;27.02;16.28;99093.28;5095462;28;20114;-80
2021/10/25 09:55:05;;;;;;;2.38;0.93;;;;;;;28.14;15.61;99088.66;5078646;28;20036;-80
2021/10/25 09:58:16;;;;;;;3.10;0.90;;;;;;;28.74;14.88;99083.19;5058106;28;20541;-80
2021/10/25 10:00:21;;;;;;;3.03;0.88;;;;;;;27.89;15.04;99084.31;5069824;28;20051;-80
2021/10/25 10:02:48;;;;;;;2.10;0.70;;;;;;;28.76;14.75;99079.91;5066102;28;20453;-80
2021/10/25 10:05:17;;;;;;;1.55;0.95;;;;;;;29.39;14.89;99075.44;5070473;28;20041;-80
2021/10/25 10:07:44;;;;;;;2.38;1.20;;;;;;;27.78;15.09;99080.94;5084927;28;20042;-80
2021/10/25 10:10:13;;;;;;;2.05;0.68;;;;;;;28.25;14.57;99073.06;5093219;28;20040;-80
2021/10/25 10:12:40;;;;;;;2.10;0.98;;;;;;;26.39;16.37;99069.78;5095645;28;20028;-80
2021/10/25 10:15:08;;;;;;;1.88;0.65;;;;;;;26.93;16.13;99069.69;5083605;28;20090;-80
2021/10/25 10:17:48;;;;;;;3.50;1.05;;;;;;;27.68;15.73;99061.41;5070208;28;20039;-80
2021/10/25 10:20:26;;;;;;;0.80;0.80;;;;;;;27.42;15.48;99072.38;5067082;28;20036;-80
2021/10/25 10:22:54;;;;;;;1.95;0.80;;;;;;;27.92;14.72;99057.25;5075580;28;20020;-80
2021/10/25 10:25:34;;;;;;;2.25;0.65;;;;;;;29.08;15.04;99059.31;5079266;28;20024;-80
2021/10/25 10:28:05;;;;;;;1.15;0.60;;;;;;;29.92;14.42;99056.13;5087795;28;20454;-80
2021/10/25 10:30:32;;;;;;;2.47;0.98;;;;;;;29.58;12.79;99055.91;5063186;28;20124;-80
2021/10/25 10:33:03;;;;;;;1.17;0.68;;;;;;;30.24;13.86;99050.28;5066958;28;20033;-80
2021/10/25 10:35:43;;;;;;;2.30;0.77;;;;;;;30.80;14.14;99058.19;5055853;28;20128;-80
2021/10/25 10:38:10;;;;;;;0.60;0.50;;;;;;;31.36;12.97;99050.53;5077212;28;20465;-80
2021/10/25 10:40:40;;;;;;;2.60;0.80;;;;;;;31.34;12.53;99048.13;5092590;28;20038;-80
2021/10/25 10:43:21;;;;;;;1.33;0.57;;;;;;;31.24;12.62;99046.50;5074827;28;20036;-80
2021/10/25 10:46:06;;;;;;;1.67;1.48;;;;;;;30.87;14.04;99046.59;5086178;28;20043;-80
2021/10/25 10:48:36;;;;;;;4.72;2.20;;;;;;;29.36;13.90;99044.38;5058501;28;20032;-80
2021/10/25 10:51:11;;;;;;;3.35;0.77;;;;;;;28.43;14.19;99048.00;5085170;28;20086;-80
2021/10/25 10:53:58;;;;;;;4.60;2.15;;;;;;;28.28;15.33;99038.28;5082177;28;20112;-80
2021/10/25 10:56:29;;;;;;;1.85;1.33;;;;;;;29.50;15.65;99038.31;5083561;28;20036;-80
2021/10/25 11:01:34;;;;;;;2.78;1.02;;;;;;;30.59;12.81;99015.13;5084302;28;20079;-80
2021/10/25 11:04:05;;;;;;;1.27;0.73;;;;;;;30.88;13.23;99014.16;5092346;28;20024;-80
2021/10/25 11:06:32;;;;;;;8.93;2.60;;;;;;;29.56;15.90;99005.41;5092982;28;20454;-80
2021/10/25 11:09:06;;;;;;;8.57;4.05;;;;;;;27.22;18.78;99015.16;5093229;28;20606;-80
2021/10/25 11:11:32;;;;;;;7.28;4.25;;;;;;;26.25;19.15;99016.50;5078989;28;20115;-80
2021/10/25 11:14:03;;;;;;;4.82;3.30;;;;;;;27.35;18.56;99012.50;5090827;28;20071;-80
2021/10/25 11:16:41;;;;;;;11.35;4.75;;;;;;;26.66;18.65;99004.91;5094427;28;20030;-80
2021/10/25 11:19:09;;;;;;;10.80;5.60;;;;;;;24.51;20.62;99004.91;5087770;28;20044;-80
2021/10/25 11:21:37;;;;;;;11.20;5.10;;;;;;;25.49;19.83;99005.09;5069261;28;20052;-80
2021/10/25 11:24:15;;;;;;;12.07;3.80;;;;;;;26.27;18.64;99008.41;5068837;28;20515;-80
2021/10/25 11:26:50;;;;;;;11.50;5.18;;;;;;;26.02;19.67;99005.16;5077224;28;20023;-80
2021/10/25 11:29:20;;;;;;;9.70;6.25;;;;;;;24.86;20.83;99013.03;5080426;28;20043;-80
2021/10/25 11:32:07;;;;;;;11.10;5.10;;;;;;;25.79;19.92;99008.69;5088231;28;20118;-80
2021/10/25 11:34:40;;;;;;;11.95;6.38;;;;;;;24.68;20.21;99006.75;5048144;28;20032;-80
2021/10/25 11:37:08;;;;;;;11.98;6.22;;;;;;;23.85;21.96;99007.78;5075017;28;20115;-80
2021/10/25 11:39:44;;;;;;;8.07;5.38;;;;;;;24.63;21.51;99007.22;5065970;28;20537;-80
2021/10/25 11:42:21;;;;;;;9.13;5.20;;;;;;;27.03;19.43;98993.38;5071592;28;20428;-80
2021/10/25 11:44:51;;;;;;;11.23;6.55;;;;;;;24.55;20.67;98998.06;5067113;28;20032;-80
2021/10/25 11:47:24;;;;;;;9.80;5.17;;;;;;;25.38;19.37;98991.97;5092143;28;20032;-80
2021/10/25 11:50:08;;;;;;;8.25;4.90;;;;;;;25.45;19.20;98984.66;5092288;28;20064;-80
2021/10/25 11:52:49;;;;;;;11.68;5.45;;;;;;;25.12;19.93;98989.06;5067181;28;20032;-80
2021/10/25 11:55:22;;;;;;;10.13;5.45;;;;;;;24.81;20.39;98984.63;5080751;28;20037;-80
2021/10/25 11:57:50;;;;;;;10.70;5.75;;;;;;;23.98;21.63;98977.25;5080108;28;20123;-80
2021/10/25 12:00:19;;;;;;;8.70;5.05;;;;;;;24.68;21.10;98970.25;5087871;28;20037;-80
2021/10/25 12:02:46;;;;;;;7.40;3.88;;;;;;;25.74;20.52;98966.97;5080933;28;20032;-80
2021/10/25 12:05:17;;;;;;;10.23;5.63;;;;;;;25.26;19.47;98972.81;5087572;28;20439;-80
2021/10/25 12:07:48;;;;;;;9.88;5.07;;;;;;;25.97;19.33;98980.31;5093443;28;20024;-80
2021/10/25 12:10:14;;;;;;;;;;;;;;;25.73;19.25;98973.84;5092523;28;20497;-80
2021/10/25 12:12:40;;;;;;;9.68;3.95;;;;;;;25.66;19.33;98979.56;5059807;28;19967;-80
2021/10/25 12:15:12;;;;;;;8.27;4.50;;;;;;;26.33;18.46;98969.28;5090885;28;20038;-80
2021/10/25 12:17:38;;;;;;;7.47;3.63;;;;;;;28.42;16.83;98964.50;5091777;28;20119;-80
2021/10/25 12:20:08;;;;;;;7.93;4.20;;;;;;;29.19;16.63;98961.63;5085253;28;20040;-81
2021/10/25 12:22:34;;;;;;;7.47;4.20;;;;;;;28.83;16.82;98961.00;5085381;28;20482;-80
2021/10/25 12:25:02;;;;;;;8.45;4.60;;;;;;;28.46;16.77;98956.72;5088765;28;20029;-80
2021/10/25 12:27:39;;;;;;;7.43;4.20;;;;;;;26.97;18.56;98958.47;5093680;28;20486;-80
2021/10/25 12:30:10;;;;;;;11.38;4.90;;;;;;;25.67;19.48;98960.66;5090752;28;20035;-80
2021/10/25 12:32:48;;;;;;;9.60;5.03;;;;;;;26.41;18.77;98951.84;5061484;28;20386;-80
2021/10/25 12:35:15;;;;;;;6.07;3.90;;;;;;;26.02;18.97;98951.69;5087623;28;20111;-80
2021/10/25 12:37:41;;;;;;;6.57;4.00;;;;;;;26.14;18.89;98950.31;5059613;28;20544;-80
2021/10/25 12:40:19;;;;;;;9.50;4.93;;;;;;;26.18;19.25;98945.44;5077656;28;20354;-80
2021/10/25 12:42:46;;;;;;;8.52;4.20;;;;;;;26.38;20.00;98943.47;5074487;28;20386;-80
2021/10/25 12:45:19;;;;;;;9.20;5.05;;;;;;;26.21;19.64;98939.72;5075800;28;20352;-81
2021/10/25 12:47:51;;;;;;;7.72;4.57;;;;;;;26.22;19.34;98940.53;5075145;28;20033;-81
2021/10/25 12:50:17;;;;;;;8.55;4.68;;;;;;;26.83;19.02;98935.41;5076736;28;20040;-81
2021/10/25 12:52:52;;;;;;;8.05;4.85;;;;;;;26.80;19.60;98933.44;5072176;28;20430;-80
2021/10/25 12:55:18;;;;;;;6.85;3.92;;;;;;;26.52;19.25;98941.19;5068212;28;20047;-80
2021/10/25 12:57:44;;;;;;;8.20;4.10;;;;;;;27.49;18.59;98921.97;5078503;28;20112;-80
2021/10/25 13:00:17;;;;;;;9.95;4.80;;;;;;;26.32;19.73;98925.47;5096613;28;20028;-81
2021/10/25 13:02:52;;;;;;;7.78;4.32;;;;;;;26.54;19.64;98933.09;5095711;28;20020;-81
2021/10/25 13:05:22;;;;;;;8.73;4.22;;;;;;;27.26;19.08;98922.81;5097153;28;20090;-81
2021/10/25 13:07:54;;;;;;;6.63;4.10;;;;;;;26.55;19.43;98926.25;5094878;28;20046;-80
2021/10/25 13:10:23;;;;;;;8.38;3.97;;;;;;;26.07;20.41;98923.84;5082093;28;20029;-80